sensor_id;sensor_type;location;lat;lon;timestamp;pressure;altitude;pressure_sealevel;temperature;humidity
40490;BME280;26196;52.302;10.572;2024-02-04T00:01:47;101004.19;;;12.72;60.94
40490;BME280;26196;52.302;10.572;2024-02-04T00:05:49;100957.91;;;12.38;61.12
40490;BME280;26196;52.302;10.572;2024-02-04T00:09:51;100956.13;;;12.39;60.73
40490;BME280;26196;52.302;10.572;2024-02-04T00:13:52;101008.78;;;12.65;61.14
40490;BME280;26196;52.302;10.572;2024-02-04T00:17:53;100961.59;;;12.31;60.66
40490;BME280;26196;52.302;10.572;2024-02-04T00:21:55;100991.66;;;12.52;60.74
40490;BME280;26196;52.302;10.572;2024-02-04T00:25:57;101015.91;;;12.62;60.84
40490;BME280;26196;52.302;10.572;2024-02-04T00:29:59;101010.69;;;12.59;60.78
40490;BME280;26196;52.302;10.572;2024-02-04T00:34:00;101001.28;;;12.52;60.30
40490;BME280;26196;52.302;10.572;2024-02-04T00:38:02;100994.50;;;12.43;60.12
40490;BME280;26196;52.302;10.572;2024-02-04T00:42:04;100998.81;;;12.45;60.94
40490;BME280;26196;52.302;10.572;2024-02-04T00:46:06;100934.75;;;12.20;60.88
40490;BME280;26196;52.302;10.572;2024-02-04T00:50:09;100985.38;;;12.56;60.71
40490;BME280;26196;52.302;10.572;2024-02-04T00:54:11;100918.16;;;12.19;60.93
40490;BME280;26196;52.302;10.572;2024-02-04T00:58:12;100972.63;;;12.44;60.83
40490;BME280;26196;52.302;10.572;2024-02-04T01:02:14;100961.28;;;12.42;60.42
40490;BME280;26196;52.302;10.572;2024-02-04T01:06:15;100978.59;;;12.49;60.20
40490;BME280;26196;52.302;10.572;2024-02-04T01:10:17;100947.63;;;12.29;60.31
40490;BME280;26196;52.302;10.572;2024-02-04T01:14:19;100923.41;;;12.19;60.33
40490;BME280;26196;52.302;10.572;2024-02-04T01:18:20;100944.06;;;12.32;59.91
40490;BME280;26196;52.302;10.572;2024-02-04T01:22:22;100986.47;;;12.49;59.85
40490;BME280;26196;52.302;10.572;2024-02-04T01:26:27;100889.13;;;11.93;60.85
40490;BME280;26196;52.302;10.572;2024-02-04T01:30:29;100905.25;;;12.12;59.75
40490;BME280;26196;52.302;10.572;2024-02-04T01:34:32;100926.13;;;12.16;59.96
40490;BME280;26196;52.302;10.572;2024-02-04T01:38:33;100960.59;;;12.35;60.05
40490;BME280;26196;52.302;10.572;2024-02-04T01:42:35;100984.84;;;12.43;60.24
40490;BME280;26196;52.302;10.572;2024-02-04T01:46:36;100984.91;;;12.42;59.67
40490;BME280;26196;52.302;10.572;2024-02-04T01:50:39;100917.72;;;12.03;60.36
40490;BME280;26196;52.302;10.572;2024-02-04T01:54:41;100978.84;;;12.40;59.89
40490;BME280;26196;52.302;10.572;2024-02-04T01:58:43;100908.88;;;12.08;59.80
40490;BME280;26196;52.302;10.572;2024-02-04T02:02:48;100927.78;;;12.19;59.44
40490;BME280;26196;52.302;10.572;2024-02-04T02:06:50;100961.47;;;12.36;59.73
40490;BME280;26196;52.302;10.572;2024-02-04T02:10:57;100959.53;;;12.42;59.86
40490;BME280;26196;52.302;10.572;2024-02-04T02:15:08;100958.78;;;12.37;59.38
40490;BME280;26196;52.302;10.572;2024-02-04T02:23:30;100909.91;;;12.02;59.42
40490;BME280;26196;52.302;10.572;2024-02-04T02:27:32;100889.25;;;11.88;59.34
40490;BME280;26196;52.302;10.572;2024-02-04T02:31:35;100945.84;;;12.31;59.20
40490;BME280;26196;52.302;10.572;2024-02-04T02:35:53;100928.50;;;12.25;59.31
40490;BME280;26196;52.302;10.572;2024-02-04T02:40:41;100884.72;;;11.95;59.19
40490;BME280;26196;52.302;10.572;2024-02-04T02:44:42;100876.84;;;11.95;59.36
40490;BME280;26196;52.302;10.572;2024-02-04T02:48:45;100863.75;;;11.93;59.32
40490;BME280;26196;52.302;10.572;2024-02-04T02:52:47;100893.97;;;12.08;58.89
40490;BME280;26196;52.302;10.572;2024-02-04T02:56:48;100913.09;;;12.13;59.42
40490;BME280;26196;52.302;10.572;2024-02-04T03:00:50;100918.16;;;12.19;59.42
40490;BME280;26196;52.302;10.572;2024-02-04T03:04:52;100901.72;;;12.13;58.62
40490;BME280;26196;52.302;10.572;2024-02-04T03:08:53;100907.91;;;12.10;59.38
40490;BME280;26196;52.302;10.572;2024-02-04T03:12:55;100865.69;;;11.85;58.92
40490;BME280;26196;52.302;10.572;2024-02-04T03:16:56;100843.22;;;11.76;59.12
40490;BME280;26196;52.302;10.572;2024-02-04T03:20:58;100906.88;;;12.16;59.40
40490;BME280;26196;52.302;10.572;2024-02-04T03:25:00;100861.13;;;11.95;59.45
40490;BME280;26196;52.302;10.572;2024-02-04T03:29:01;100887.03;;;12.07;59.49
40490;BME280;26196;52.302;10.572;2024-02-04T03:33:06;100862.16;;;11.88;59.48
40490;BME280;26196;52.302;10.572;2024-02-04T03:37:07;100866.34;;;11.95;59.82
40490;BME280;26196;52.302;10.572;2024-02-04T03:41:09;100895.94;;;12.00;59.87
40490;BME280;26196;52.302;10.572;2024-02-04T03:45:11;100823.22;;;11.72;59.58
40490;BME280;26196;52.302;10.572;2024-02-04T03:49:12;100830.84;;;11.81;59.81
40490;BME280;26196;52.302;10.572;2024-02-04T03:53:14;100864.41;;;12.01;59.84
40490;BME280;26196;52.302;10.572;2024-02-04T03:57:15;100822.47;;;11.67;60.05
40490;BME280;26196;52.302;10.572;2024-02-04T04:01:17;100813.75;;;11.67;59.53
40490;BME280;26196;52.302;10.572;2024-02-04T04:05:18;100870.69;;;11.96;60.02
40490;BME280;26196;52.302;10.572;2024-02-04T04:09:20;100876.75;;;11.98;60.14
40490;BME280;26196;52.302;10.572;2024-02-04T04:13:22;100859.38;;;11.94;60.19
40490;BME280;26196;52.302;10.572;2024-02-04T04:17:23;100860.31;;;11.91;59.88
40490;BME280;26196;52.302;10.572;2024-02-04T04:21:25;100825.06;;;11.69;60.17
40490;BME280;26196;52.302;10.572;2024-02-04T04:25:26;100855.00;;;11.94;60.19
40490;BME280;26196;52.302;10.572;2024-02-04T04:29:28;100859.31;;;11.97;60.42
40490;BME280;26196;52.302;10.572;2024-02-04T04:33:29;100866.34;;;11.95;59.98
40490;BME280;26196;52.302;10.572;2024-02-04T04:37:31;100803.44;;;11.60;60.05
40490;BME280;26196;52.302;10.572;2024-02-04T04:41:33;100866.56;;;11.87;60.27
40490;BME280;26196;52.302;10.572;2024-02-04T04:45:34;100814.22;;;11.48;60.08
40490;BME280;26196;52.302;10.572;2024-02-04T04:49:36;100785.50;;;11.44;60.73
40490;BME280;26196;52.302;10.572;2024-02-04T04:53:38;100799.63;;;11.39;60.49
40490;BME280;26196;52.302;10.572;2024-02-04T04:57:40;100825.50;;;11.52;60.71
40490;BME280;26196;52.302;10.572;2024-02-04T05:01:45;100867.84;;;11.71;60.52
40490;BME280;26196;52.302;10.572;2024-02-04T05:05:47;100888.81;;;11.71;60.41
40490;BME280;26196;52.302;10.572;2024-02-04T05:09:49;100869.75;;;11.64;60.80
40490;BME280;26196;52.302;10.572;2024-02-04T05:13:51;100876.84;;;11.60;60.92
40490;BME280;26196;52.302;10.572;2024-02-04T05:17:52;100869.91;;;11.58;60.58
40490;BME280;26196;52.302;10.572;2024-02-04T05:21:54;100852.41;;;11.58;60.76
40490;BME280;26196;52.302;10.572;2024-02-04T05:25:55;100856.66;;;11.63;60.54
40490;BME280;26196;52.302;10.572;2024-02-04T05:29:58;100874.06;;;11.67;60.38
40490;BME280;26196;52.302;10.572;2024-02-04T05:34:05;100875.03;;;11.63;60.70
40490;BME280;26196;52.302;10.572;2024-02-04T05:38:08;100877.78;;;11.58;60.95
40490;BME280;26196;52.302;10.572;2024-02-04T05:42:10;100842.69;;;11.28;61.08
40490;BME280;26196;52.302;10.572;2024-02-04T05:46:13;100877.88;;;11.55;60.44
40490;BME280;26196;52.302;10.572;2024-02-04T05:50:15;100881.28;;;11.57;60.24
40490;BME280;26196;52.302;10.572;2024-02-04T05:54:17;100886.59;;;11.55;60.52
40490;BME280;26196;52.302;10.572;2024-02-04T05:58:18;100856.38;;;11.41;60.64
40490;BME280;26196;52.302;10.572;2024-02-04T06:02:20;100863.09;;;11.51;60.54
40490;BME280;26196;52.302;10.572;2024-02-04T06:06:21;100851.97;;;11.43;60.38
40490;BME280;26196;52.302;10.572;2024-02-04T06:10:23;100810.44;;;11.26;60.23
40490;BME280;26196;52.302;10.572;2024-02-04T06:14:25;100838.03;;;11.41;60.41
40490;BME280;26196;52.302;10.572;2024-02-04T06:18:26;100803.47;;;11.26;60.33
40490;BME280;26196;52.302;10.572;2024-02-04T06:22:28;100854.41;;;11.49;60.16
40490;BME280;26196;52.302;10.572;2024-02-04T06:26:30;100775.81;;;11.13;60.49
40490;BME280;26196;52.302;10.572;2024-02-04T06:30:31;100834.34;;;11.48;60.24
40490;BME280;26196;52.302;10.572;2024-02-04T06:34:33;100813.31;;;11.49;60.29
40490;BME280;26196;52.302;10.572;2024-02-04T06:38:35;100812.25;;;11.58;60.35
40490;BME280;26196;52.302;10.572;2024-02-04T06:42:36;100805.47;;;11.49;60.29
40490;BME280;26196;52.302;10.572;2024-02-04T06:46:38;100797.84;;;11.40;60.56
40490;BME280;26196;52.302;10.572;2024-02-04T06:50:39;100760.19;;;11.10;60.52
40490;BME280;26196;52.302;10.572;2024-02-04T06:54:41;100831.66;;;11.51;60.46
40490;BME280;26196;52.302;10.572;2024-02-04T06:58:43;100824.72;;;11.48;60.21
40490;BME280;26196;52.302;10.572;2024-02-04T07:02:44;100749.59;;;11.14;60.23
40490;BME280;26196;52.302;10.572;2024-02-04T07:06:46;100797.88;;;11.38;60.60
40490;BME280;26196;52.302;10.572;2024-02-04T07:10:47;100799.63;;;11.39;60.40
40490;BME280;26196;52.302;10.572;2024-02-04T07:14:49;100799.63;;;11.39;60.64
40490;BME280;26196;52.302;10.572;2024-02-04T07:18:51;100799.81;;;11.32;60.73
40490;BME280;26196;52.302;10.572;2024-02-04T07:22:52;100784.88;;;11.34;60.15
40490;BME280;26196;52.302;10.572;2024-02-04T07:26:54;100799.00;;;11.28;60.54
40490;BME280;26196;52.302;10.572;2024-02-04T07:30:55;100768.66;;;11.20;60.24
40490;BME280;26196;52.302;10.572;2024-02-04T07:34:57;100749.69;;;11.10;60.35
40490;BME280;26196;52.302;10.572;2024-02-04T07:38:59;100775.75;;;11.16;60.45
40490;BME280;26196;52.302;10.572;2024-02-04T07:43:00;100772.94;;;11.24;60.58
40490;BME280;26196;52.302;10.572;2024-02-04T07:47:02;100780.84;;;11.22;60.53
40490;BME280;26196;52.302;10.572;2024-02-04T07:51:04;100786.94;;;11.23;60.61
40490;BME280;26196;52.302;10.572;2024-02-04T07:55:06;100774.53;;;11.29;60.65
40490;BME280;26196;52.302;10.572;2024-02-04T07:59:08;100763.31;;;11.24;60.43
40490;BME280;26196;52.302;10.572;2024-02-04T08:03:09;100800.75;;;11.29;60.83
40490;BME280;26196;52.302;10.572;2024-02-04T08:07:11;100790.19;;;11.32;60.90
40490;BME280;26196;52.302;10.572;2024-02-04T08:11:16;100787.47;;;11.35;60.63
40490;BME280;26196;52.302;10.572;2024-02-04T08:15:17;100726.38;;;11.01;60.80
40490;BME280;26196;52.302;10.572;2024-02-04T08:19:19;100696.75;;;10.97;61.20
40490;BME280;26196;52.302;10.572;2024-02-04T08:23:21;100704.50;;;11.02;61.25
40490;BME280;26196;52.302;10.572;2024-02-04T08:27:22;100765.56;;;11.38;61.39
40490;BME280;26196;52.302;10.572;2024-02-04T08:31:24;100693.88;;;11.08;61.08
40490;BME280;26196;52.302;10.572;2024-02-04T08:35:25;100720.00;;;11.11;61.51
40490;BME280;26196;52.302;10.572;2024-02-04T08:39:27;100694.81;;;11.05;61.14
40490;BME280;26196;52.302;10.572;2024-02-04T08:43:29;100737.69;;;11.35;61.13
40490;BME280;26196;52.302;10.572;2024-02-04T08:47:30;100757.47;;;11.47;61.53
40490;BME280;26196;52.302;10.572;2024-02-04T08:51:32;100756.69;;;11.44;61.84
40490;BME280;26196;52.302;10.572;2024-02-04T08:55:33;100710.06;;;11.24;61.34
40490;BME280;26196;52.302;10.572;2024-02-04T08:59:35;100748.69;;;11.50;61.57
40490;BME280;26196;52.302;10.572;2024-02-04T09:03:37;100765.25;;;11.50;61.63
40490;BME280;26196;52.302;10.572;2024-02-04T09:07:38;100699.63;;;11.21;61.74
40490;BME280;26196;52.302;10.572;2024-02-04T09:11:40;100697.31;;;11.10;61.95
40490;BME280;26196;52.302;10.572;2024-02-04T09:15:42;100723.19;;;11.22;62.10
40490;BME280;26196;52.302;10.572;2024-02-04T09:19:44;100767.97;;;11.47;62.30
40490;BME280;26196;52.302;10.572;2024-02-04T09:23:46;100772.31;;;11.47;62.11
40490;BME280;26196;52.302;10.572;2024-02-04T09:27:47;100715.72;;;11.07;62.75
40490;BME280;26196;52.302;10.572;2024-02-04T09:31:49;100762.13;;;11.36;62.94
40490;BME280;26196;52.302;10.572;2024-02-04T09:35:52;100775.34;;;11.31;63.03
40490;BME280;26196;52.302;10.572;2024-02-04T09:39:54;100700.38;;;10.93;62.70
40490;BME280;26196;52.302;10.572;2024-02-04T09:43:56;100708.13;;;10.98;62.62
40490;BME280;26196;52.302;10.572;2024-02-04T09:48:00;100766.81;;;11.23;62.88
40490;BME280;26196;52.302;10.572;2024-02-04T09:52:07;100708.31;;;10.90;62.93
40490;BME280;26196;52.302;10.572;2024-02-04T09:56:10;100699.75;;;10.83;62.63
40490;BME280;26196;52.302;10.572;2024-02-04T10:00:18;100763.31;;;11.24;62.59
40490;BME280;26196;52.302;10.572;2024-02-04T10:04:20;100702.06;;;10.95;62.68
40490;BME280;26196;52.302;10.572;2024-02-04T10:08:22;100749.13;;;11.31;62.91
40490;BME280;26196;52.302;10.572;2024-02-04T10:12:24;100750.25;;;11.23;62.95
40490;BME280;26196;52.302;10.572;2024-02-04T10:16:26;100720.59;;;10.86;62.55
40490;BME280;26196;52.302;10.572;2024-02-04T10:20:27;100721.28;;;10.94;62.88
40490;BME280;26196;52.302;10.572;2024-02-04T10:24:29;100770.28;;;11.25;62.89
40490;BME280;26196;52.302;10.572;2024-02-04T10:28:31;100762.47;;;11.24;62.70
40490;BME280;26196;52.302;10.572;2024-02-04T10:32:34;100770.19;;;11.28;62.38
40490;BME280;26196;52.302;10.572;2024-02-04T10:36:35;100766.78;;;11.26;62.85
40490;BME280;26196;52.302;10.572;2024-02-04T10:40:37;100743.63;;;11.08;62.43
40490;BME280;26196;52.302;10.572;2024-02-04T10:44:40;100754.84;;;11.13;62.21
40490;BME280;26196;52.302;10.572;2024-02-04T10:48:52;100765.31;;;11.14;62.11
40490;BME280;26196;52.302;10.572;2024-02-04T10:52:58;100687.69;;;10.76;62.17
40490;BME280;26196;52.302;10.572;2024-02-04T10:57:05;100759.91;;;11.21;61.95
40490;BME280;26196;52.302;10.572;2024-02-04T11:01:13;100749.13;;;10.99;62.32
40490;BME280;26196;52.302;10.572;2024-02-04T11:05:15;100713.41;;;10.94;61.70
40490;BME280;26196;52.302;10.572;2024-02-04T11:09:18;100742.09;;;11.33;61.33
40490;BME280;26196;52.302;10.572;2024-02-04T11:13:22;100717.19;;;11.19;61.36
40490;BME280;26196;52.302;10.572;2024-02-04T11:22:07;100727.50;;;11.25;61.26
40490;BME280;26196;52.302;10.572;2024-02-04T11:26:15;100732.84;;;11.20;61.26
40490;BME280;26196;52.302;10.572;2024-02-04T11:30:17;100701.59;;;11.14;61.50
40490;BME280;26196;52.302;10.572;2024-02-04T11:34:19;100636.03;;;10.83;61.78
40490;BME280;26196;52.302;10.572;2024-02-04T11:38:22;100695.41;;;11.16;61.45
40490;BME280;26196;52.302;10.572;2024-02-04T11:42:24;100710.84;;;11.27;61.59
40490;BME280;26196;52.302;10.572;2024-02-04T11:46:32;100636.72;;;10.89;61.11
40490;BME280;26196;52.302;10.572;2024-02-04T11:50:35;100691.84;;;11.19;61.31
40490;BME280;26196;52.302;10.572;2024-02-04T11:54:38;100630.75;;;10.84;61.25
40490;BME280;26196;52.302;10.572;2024-02-04T11:58:40;100714.59;;;11.17;61.41
40490;BME280;26196;52.302;10.572;2024-02-04T12:02:42;100658.69;;;10.84;61.15
40490;BME280;26196;52.302;10.572;2024-02-04T12:06:44;100708.50;;;11.16;60.94
40490;BME280;26196;52.302;10.572;2024-02-04T12:10:47;100705.81;;;11.18;60.90
40490;BME280;26196;52.302;10.572;2024-02-04T12:14:50;100652.38;;;10.92;60.82
40490;BME280;26196;52.302;10.572;2024-02-04T12:18:52;100640.34;;;10.85;60.83
40490;BME280;26196;52.302;10.572;2024-02-04T12:22:53;100653.88;;;11.03;60.59
40490;BME280;26196;52.302;10.572;2024-02-04T12:26:55;100655.75;;;10.98;59.53
40490;BME280;26196;52.302;10.572;2024-02-04T12:30:57;100692.69;;;11.20;59.40
40490;BME280;26196;52.302;10.572;2024-02-04T12:35:00;100629.81;;;10.87;59.42
40490;BME280;26196;52.302;10.572;2024-02-04T12:39:02;100638.25;;;10.98;59.55
40490;BME280;26196;52.302;10.572;2024-02-04T12:43:05;100673.38;;;11.24;59.63
40490;BME280;26196;52.302;10.572;2024-02-04T12:47:07;100612.97;;;10.97;59.58
40490;BME280;26196;52.302;10.572;2024-02-04T12:51:09;100644.06;;;11.09;59.43
40490;BME280;26196;52.302;10.572;2024-02-04T12:55:27;100647.22;;;11.22;59.45
40490;BME280;26196;52.302;10.572;2024-02-04T12:59:31;100624.22;;;11.01;58.93
40490;BME280;26196;52.302;10.572;2024-02-04T13:03:33;100675.84;;;11.28;59.93
40490;BME280;26196;52.302;10.572;2024-02-04T13:07:35;100571.56;;;10.79;59.07
40490;BME280;26196;52.302;10.572;2024-02-04T13:11:37;100639.69;;;11.10;59.06
40490;BME280;26196;52.302;10.572;2024-02-04T13:15:43;100602.13;;;10.78;58.59
40490;BME280;26196;52.302;10.572;2024-02-04T13:19:45;100636.81;;;11.19;58.75
40490;BME280;26196;52.302;10.572;2024-02-04T13:23:50;100642.19;;;11.14;58.62
40490;BME280;26196;52.302;10.572;2024-02-04T13:27:52;100617.84;;;11.11;58.45
40490;BME280;26196;52.302;10.572;2024-02-04T13:31:54;100609.88;;;11.14;58.39
40490;BME280;26196;52.302;10.572;2024-02-04T13:35:57;100582.47;;;10.94;58.26
40490;BME280;26196;52.302;10.572;2024-02-04T13:39:58;100570.63;;;10.81;58.30
40490;BME280;26196;52.302;10.572;2024-02-04T13:44:00;100609.25;;;11.06;58.53
40490;BME280;26196;52.302;10.572;2024-02-04T13:48:01;100592.19;;;10.91;58.28
40490;BME280;26196;52.302;10.572;2024-02-04T13:52:03;100564.50;;;10.82;57.81
40490;BME280;26196;52.302;10.572;2024-02-04T13:56:05;100573.81;;;10.92;57.82
40490;BME280;26196;52.302;10.572;2024-02-04T14:00:07;100556.59;;;10.84;57.91
40490;BME280;26196;52.302;10.572;2024-02-04T14:04:09;100626.16;;;11.25;57.94
40490;BME280;26196;52.302;10.572;2024-02-04T14:08:12;100577.00;;;11.04;58.31
40490;BME280;26196;52.302;10.572;2024-02-04T14:12:13;100614.78;;;11.26;58.13
40490;BME280;26196;52.302;10.572;2024-02-04T14:16:15;100601.63;;;11.28;58.57
40490;BME280;26196;52.302;10.572;2024-02-04T14:20:17;100607.59;;;11.33;58.68
40490;BME280;26196;52.302;10.572;2024-02-04T14:24:18;100535.13;;;11.02;59.06
40490;BME280;26196;52.302;10.572;2024-02-04T14:28:20;100531.66;;;11.02;60.00
40490;BME280;26196;52.302;10.572;2024-02-04T14:32:22;100570.94;;;11.31;59.96
40490;BME280;26196;52.302;10.572;2024-02-04T14:36:23;100542.66;;;11.13;60.31
40490;BME280;26196;52.302;10.572;2024-02-04T14:40:25;100599.59;;;11.37;59.61
40490;BME280;26196;52.302;10.572;2024-02-04T14:44:26;100585.91;;;11.28;59.78
40490;BME280;26196;52.302;10.572;2024-02-04T14:48:28;100597.09;;;11.34;59.73
40490;BME280;26196;52.302;10.572;2024-02-04T14:52:30;100543.91;;;11.00;60.04
40490;BME280;26196;52.302;10.572;2024-02-04T14:56:36;100586.84;;;11.25;59.43
40490;BME280;26196;52.302;10.572;2024-02-04T15:00:38;100545.59;;;11.02;60.08
40490;BME280;26196;52.302;10.572;2024-02-04T15:04:40;100553.13;;;11.13;59.43
40490;BME280;26196;52.302;10.572;2024-02-04T15:08:41;100605.84;;;11.33;59.54
40490;BME280;26196;52.302;10.572;2024-02-04T15:12:43;100544.84;;;10.99;59.92
40490;BME280;26196;52.302;10.572;2024-02-04T15:16:46;100605.06;;;11.30;60.02
40490;BME280;26196;52.302;10.572;2024-02-04T15:20:47;100547.31;;;11.03;60.05
40490;BME280;26196;52.302;10.572;2024-02-04T15:24:49;100610.19;;;11.34;59.93
40490;BME280;26196;52.302;10.572;2024-02-04T15:28:51;100569.94;;;11.06;60.06
40490;BME280;26196;52.302;10.572;2024-02-04T15:32:53;100597.09;;;11.34;60.14
40490;BME280;26196;52.302;10.572;2024-02-04T15:36:56;100552.56;;;11.03;60.50
40490;BME280;26196;52.302;10.572;2024-02-04T15:40:57;100601.44;;;11.34;60.57
40490;BME280;26196;52.302;10.572;2024-02-04T15:44:59;100561.09;;;11.10;60.67
40490;BME280;26196;52.302;10.572;2024-02-04T15:49:01;100564.13;;;10.94;60.60
40490;BME280;26196;52.302;10.572;2024-02-04T15:53:03;100590.47;;;11.21;60.32
40490;BME280;26196;52.302;10.572;2024-02-04T15:57:06;100597.25;;;11.28;60.68
40490;BME280;26196;52.302;10.572;2024-02-04T16:01:10;100554.16;;;11.09;60.66
40490;BME280;26196;52.302;10.572;2024-02-04T16:05:14;100593.91;;;11.23;60.90
40490;BME280;26196;52.302;10.572;2024-02-04T16:09:16;100592.94;;;11.26;60.67
40490;BME280;26196;52.302;10.572;2024-02-04T16:13:21;100573.09;;;11.19;60.95
40490;BME280;26196;52.302;10.572;2024-02-04T16:17:26;100527.47;;;10.94;60.85
40490;BME280;26196;52.302;10.572;2024-02-04T16:21:31;100515.38;;;10.90;61.00
40490;BME280;26196;52.302;10.572;2024-02-04T16:25:33;100589.59;;;11.21;60.85
40490;BME280;26196;52.302;10.572;2024-02-04T16:29:36;100532.56;;;11.01;60.93
40490;BME280;26196;52.302;10.572;2024-02-04T16:33:37;100560.66;;;11.25;61.01
40490;BME280;26196;52.302;10.572;2024-02-04T16:37:39;100592.72;;;11.33;60.74
40490;BME280;26196;52.302;10.572;2024-02-04T16:41:43;100577.16;;;11.29;61.25
40490;BME280;26196;52.302;10.572;2024-02-04T16:45:45;100571.75;;;11.33;60.87
40490;BME280;26196;52.302;10.572;2024-02-04T16:49:47;100576.19;;;11.31;60.75
40490;BME280;26196;52.302;10.572;2024-02-04T16:53:49;100562.28;;;11.29;60.95
40490;BME280;26196;52.302;10.572;2024-02-04T16:57:52;100507.34;;;10.97;61.01
40490;BME280;26196;52.302;10.572;2024-02-04T17:01:53;100546.72;;;11.23;60.63
40490;BME280;26196;52.302;10.572;2024-02-04T17:05:56;100554.38;;;11.31;61.15
40490;BME280;26196;52.302;10.572;2024-02-04T17:09:58;100542.44;;;11.21;60.95
40490;BME280;26196;52.302;10.572;2024-02-04T17:14:00;100559.59;;;11.31;60.95
40490;BME280;26196;52.302;10.572;2024-02-04T17:18:02;100526.69;;;10.92;61.06
40490;BME280;26196;52.302;10.572;2024-02-04T17:22:16;100505.00;;;10.87;60.71
40490;BME280;26196;52.302;10.572;2024-02-04T17:26:24;100534.66;;;11.19;61.06
40490;BME280;26196;52.302;10.572;2024-02-04T17:30:29;100548.09;;;11.36;60.88
40490;BME280;26196;52.302;10.572;2024-02-04T17:34:31;100540.47;;;11.29;61.03
40490;BME280;26196;52.302;10.572;2024-02-04T17:38:33;100532.88;;;11.20;61.10
40490;BME280;26196;52.302;10.572;2024-02-04T17:42:35;100545.03;;;11.22;61.12
40490;BME280;26196;52.302;10.572;2024-02-04T17:46:38;100563.88;;;11.35;60.82
40490;BME280;26196;52.302;10.572;2024-02-04T17:50:40;100565.75;;;11.30;61.33
40490;BME280;26196;52.302;10.572;2024-02-04T17:54:41;100552.59;;;11.31;60.81
40490;BME280;26196;52.302;10.572;2024-02-04T17:58:44;100503.69;;;11.02;61.54
40490;BME280;26196;52.302;10.572;2024-02-04T18:02:45;100545.44;;;11.38;60.79
40490;BME280;26196;52.302;10.572;2024-02-04T18:06:48;100537.16;;;11.22;60.87
40490;BME280;26196;52.302;10.572;2024-02-04T18:10:50;100471.63;;;10.94;61.66
40490;BME280;26196;52.302;10.572;2024-02-04T18:14:52;100492.88;;;11.13;61.44
40490;BME280;26196;52.302;10.572;2024-02-04T18:18:53;100520.47;;;11.26;61.24
40490;BME280;26196;52.302;10.572;2024-02-04T18:22:56;100513.78;;;11.16;61.43
40490;BME280;26196;52.302;10.572;2024-02-04T18:26:58;100521.44;;;11.22;60.94
40490;BME280;26196;52.302;10.572;2024-02-04T18:30:59;100519.34;;;11.33;61.33
40490;BME280;26196;52.302;10.572;2024-02-04T18:35:01;100508.06;;;11.31;61.57
40490;BME280;26196;52.302;10.572;2024-02-04T18:39:03;100470.25;;;11.10;61.32
40490;BME280;26196;52.302;10.572;2024-02-04T18:43:05;100509.59;;;11.38;61.44
40490;BME280;26196;52.302;10.572;2024-02-04T18:47:07;100502.44;;;11.44;61.57
40490;BME280;26196;52.302;10.572;2024-02-04T18:51:08;100435.41;;;11.08;61.26
40490;BME280;26196;52.302;10.572;2024-02-04T18:55:10;100476.47;;;11.36;61.59
40490;BME280;26196;52.302;10.572;2024-02-04T18:59:11;100436.13;;;11.13;61.74
40490;BME280;26196;52.302;10.572;2024-02-04T19:03:13;100485.78;;;11.46;61.62
40490;BME280;26196;52.302;10.572;2024-02-04T19:07:14;100474.34;;;11.49;61.73
40490;BME280;26196;52.302;10.572;2024-02-04T19:11:16;100432.16;;;11.28;61.55
40490;BME280;26196;52.302;10.572;2024-02-04T19:15:18;100407.09;;;11.21;61.67
40490;BME280;26196;52.302;10.572;2024-02-04T19:19:20;100458.44;;;11.55;61.66
40490;BME280;26196;52.302;10.572;2024-02-04T19:23:22;100444.63;;;11.50;62.00
40490;BME280;26196;52.302;10.572;2024-02-04T19:27:23;100441.06;;;11.51;61.67
40490;BME280;26196;52.302;10.572;2024-02-04T19:31:25;100380.09;;;11.17;61.90
40490;BME280;26196;52.302;10.572;2024-02-04T19:35:27;100410.94;;;11.37;61.95
40490;BME280;26196;52.302;10.572;2024-02-04T19:39:29;100418.47;;;11.47;62.24
40490;BME280;26196;52.302;10.572;2024-02-04T19:43:30;100395.13;;;11.39;62.06
40490;BME280;26196;52.302;10.572;2024-02-04T19:47:35;100418.81;;;11.63;62.17
40490;BME280;26196;52.302;10.572;2024-02-04T19:51:37;100345.69;;;11.28;61.83
40490;BME280;26196;52.302;10.572;2024-02-04T19:55:39;100385.81;;;11.57;62.28
40490;BME280;26196;52.302;10.572;2024-02-04T19:59:43;100365.03;;;11.52;62.41
40490;BME280;26196;52.302;10.572;2024-02-04T20:03:46;100373.41;;;11.62;62.57
40490;BME280;26196;52.302;10.572;2024-02-04T20:07:48;100364.47;;;11.68;62.42
40490;BME280;26196;52.302;10.572;2024-02-04T20:11:50;100342.97;;;11.58;62.80
40490;BME280;26196;52.302;10.572;2024-02-04T20:15:52;100336.56;;;11.67;62.32
40490;BME280;26196;52.302;10.572;2024-02-04T20:19:54;100320.97;;;11.62;62.65
40490;BME280;26196;52.302;10.572;2024-02-04T20:23:58;100253.84;;;11.33;62.64
40490;BME280;26196;52.302;10.572;2024-02-04T20:27:59;100292.13;;;11.62;63.09
40490;BME280;26196;52.302;10.572;2024-02-04T20:32:02;100266.19;;;11.54;62.86
40490;BME280;26196;52.302;10.572;2024-02-04T20:36:03;100290.09;;;11.70;63.05
40490;BME280;26196;52.302;10.572;2024-02-04T20:40:05;100226.72;;;11.34;62.63
40490;BME280;26196;52.302;10.572;2024-02-04T20:44:09;100301.28;;;11.75;63.19
40490;BME280;26196;52.302;10.572;2024-02-04T20:48:10;100227.38;;;11.41;63.17
40490;BME280;26196;52.302;10.572;2024-02-04T20:52:12;100264.22;;;11.61;62.97
40490;BME280;26196;52.302;10.572;2024-02-04T20:56:15;100287.41;;;11.73;63.25
40490;BME280;26196;52.302;10.572;2024-02-04T21:00:17;100276.22;;;11.68;63.42